Time;durP1;ratioP1;P1;durP2;ratioP2;P2;SDS_P1;SDS_P2;PMS_P1;PMS_P2;Temp;Humidity;BMP_temperature;BMP_pressure;BME280_temperature;BME280_humidity;BME280_pressure;Samples;Min_cycle;Max_cycle;Signal;HPM_P1;HPM_P2
2022/06/07 00:00:17;;;;;;;;;;;;;;;13.83;80.83;95388.66;6247334;28;20395;-69
2022/06/07 00:03:21;;;;;;;;;;;;;;;13.85;80.68;95392.00;6247243;28;19924;-67
2022/06/07 00:06:24;;;;;;;;;;;;;;;13.88;80.68;95388.22;6247025;28;19921;-68
2022/06/07 00:09:28;;;;;;;;;;;;;;;13.88;80.58;95359.13;6246860;28;19924;-68
2022/06/07 00:12:32;;;;;;;;;;;;;;;13.88;80.54;95344.09;6247173;28;20400;-68
2022/06/07 00:15:41;;;;;;;;;;;;;;;13.89;80.50;95356.31;6247216;28;19920;-68
2022/06/07 00:18:45;;;;;;;;;;;;;;;13.93;80.27;95357.66;6246984;28;19917;-68
2022/06/07 00:21:46;;;;;;;;;;;;;;;13.93;80.09;95347.09;6247054;28;19921;-67
2022/06/07 00:24:53;;;;;;;;;;;;;;;13.93;80.24;95330.41;6246733;28;19928;-68
2022/06/07 00:27:55;;;;;;;;;;;;;;;14.00;79.98;95372.91;6246562;28;19928;-67
2022/06/07 00:30:59;;;;;;;;;;;;;;;14.01;80.00;95353.41;6246584;28;19921;-67
2022/06/07 00:34:04;;;;;;;;;;;;;;;14.02;79.73;95350.59;6246646;28;19920;-67
2022/06/07 00:37:05;;;;;;;;;;;;;;;14.07;79.81;95358.09;6246410;28;19921;-68
2022/06/07 00:40:09;;;;;;;;;;;;;;;14.11;79.60;95370.00;6246409;28;19925;-68
2022/06/07 00:43:10;;;;;;;;;;;;;;;14.15;79.39;95366.03;6246458;28;20403;-67
2022/06/07 00:46:14;;;;;;;;;;;;;;;14.18;79.32;95381.56;6244986;28;19921;-67
2022/06/07 00:49:18;;;;;;;;;;;;;;;14.21;79.46;95393.66;6246450;28;19921;-67
2022/06/07 00:52:24;;;;;;;;;;;;;;;14.24;79.27;95428.59;6245767;28;19920;-69
2022/06/07 00:55:25;;;;;;;;;;;;;;;14.30;79.01;95457.06;6246224;28;19942;-67
2022/06/07 00:58:30;;;;;;;;;;;;;;;14.45;78.21;95456.47;6245999;28;20316;-68
2022/06/07 01:01:31;;;;;;;;;;;;;;;14.27;78.41;95444.16;6246234;28;19921;-68
2022/06/07 01:04:35;;;;;;;;;;;;;;;14.14;78.46;95422.56;6246317;28;20387;-68
2022/06/07 01:11:01;;;;;;;;;;;;;;;13.99;78.76;95345.63;6246093;28;19925;-67
2022/06/07 01:14:07;;;;;;;;;;;;;;;13.84;79.04;95321.59;6245941;28;19920;-67
2022/06/07 01:17:11;;;;;;;;;;;;;;;13.82;79.42;95323.56;6245812;28;19931;-67
2022/06/07 01:20:12;;;;;;;;;;;;;;;13.87;79.46;95304.56;6244453;28;19921;-67
2022/06/07 01:23:16;;;;;;;;;;;;;;;13.92;79.49;95281.97;6246250;28;19920;-67
2022/06/07 01:26:17;;;;;;;;;;;;;;;14.00;79.44;95261.84;6246113;28;20027;-67
2022/06/07 01:29:22;;;;;;;;;;;;;;;14.01;79.17;95248.47;6245796;28;19925;-67
2022/06/07 01:32:24;;;;;;;;;;;;;;;14.04;79.18;95226.13;6245518;28;19925;-67
2022/06/07 01:35:27;;;;;;;;;;;;;;;14.13;79.17;95198.75;6246273;28;19921;-67
2022/06/07 01:38:31;;;;;;;;;;;;;;;14.20;78.93;95186.50;6245903;28;19921;-67
2022/06/07 01:44:56;;;;;;;;;;;;;;;14.37;78.73;95212.00;6245718;28;19921;-67
2022/06/07 01:47:57;;;;;;;;;;;;;;;14.45;78.72;95220.94;6245826;28;19921;-67
2022/06/07 01:51:01;;;;;;;;;;;;;;;14.54;78.48;95230.56;6245497;28;19925;-66
2022/06/07 01:54:05;;;;;;;;;;;;;;;14.65;78.47;95240.84;6245521;28;19928;-67
2022/06/07 01:57:10;;;;;;;;;;;;;;;14.82;78.08;95236.38;6245374;28;20300;-67
2022/06/07 02:00:13;;;;;;;;;;;;;;;14.90;78.00;95238.22;6245385;28;19920;-67
2022/06/07 02:03:17;;;;;;;;;;;;;;;14.92;77.76;95220.31;6246158;28;19921;-67
2022/06/07 02:06:18;;;;;;;;;;;;;;;14.82;77.68;95199.31;6250331;28;20020;-66
2022/06/07 02:09:24;;;;;;;;;;;;;;;14.70;77.99;95179.47;6250145;28;20300;-67
2022/06/07 02:12:25;;;;;;;;;;;;;;;14.57;78.31;95185.25;6249806;28;20081;-67
2022/06/07 02:15:27;;;;;;;;;;;;;;;14.52;78.51;95140.78;6249995;28;19921;-67
2022/06/07 02:18:31;;;;;;;;;;;;;;;14.57;78.39;95121.72;6249501;28;19921;-68
2022/06/07 02:21:37;;;;;;;;;;;;;;;14.61;78.61;95107.19;6249602;28;19920;-67
2022/06/07 02:24:43;;;;;;;;;;;;;;;14.87;78.38;95095.53;6249625;28;19920;-68
2022/06/07 02:27:44;;;;;;;;;;;;;;;15.24;77.84;95093.09;6249436;28;20026;-68
2022/06/07 02:30:47;;;;;;;;;;;;;;;15.58;77.06;95085.81;6248964;28;19927;-69
2022/06/07 02:33:49;;;;;;;;;;;;;;;15.90;76.44;95076.88;6249003;28;19925;-68
2022/06/07 02:36:55;;;;;;;;;;;;;;;16.26;76.02;95065.66;6249479;28;20388;-67
2022/06/07 02:39:56;;;;;;;;;;;;;;;16.70;75.33;95072.88;6249395;28;19921;-67
2022/06/07 02:42:57;;;;;;;;;;;;;;;17.00;73.88;95100.34;6249407;28;19921;-67
2022/06/07 02:46:03;;;;;;;;;;;;;;;16.90;73.95;95121.88;6248843;28;19921;-67
2022/06/07 02:49:08;;;;;;;;;;;;;;;16.73;74.04;95128.28;6248939;28;19921;-68
2022/06/07 02:52:10;;;;;;;;;;;;;;;16.66;74.38;95130.84;6247563;28;19961;-68
2022/06/07 02:55:11;;;;;;;;;;;;;;;16.54;74.08;95117.19;6248597;28;19917;-68
2022/06/07 02:58:15;;;;;;;;;;;;;;;16.44;74.18;95116.59;6248472;28;19921;-69
2022/06/07 03:01:21;;;;;;;;;;;;;;;16.51;73.64;95117.53;6248527;28;19925;-68
2022/06/07 03:04:23;;;;;;;;;;;;;;;16.71;73.24;95115.22;6248805;28;19917;-67
2022/06/07 03:07:27;;;;;;;;;;;;;;;16.85;72.04;95128.75;6248420;28;19920;-68
2022/06/07 03:10:30;;;;;;;;;;;;;;;16.93;72.18;95144.56;6248746;28;19921;-67
2022/06/07 03:13:34;;;;;;;;;;;;;;;17.35;72.03;95167.88;6248116;28;19927;-68
2022/06/07 03:16:38;;;;;;;;;;;;;;;17.98;70.71;95167.53;6248191;28;19921;-68
2022/06/07 03:19:39;;;;;;;;;;;;;;;18.51;69.71;95178.72;6247980;28;19925;-67
2022/06/07 03:22:40;;;;;;;;;;;;;;;18.67;68.56;95194.44;6248074;28;20295;-68
2022/06/07 03:25:46;;;;;;;;;;;;;;;18.40;69.12;95201.38;6248283;28;19921;-69
2022/06/07 03:28:51;;;;;;;;;;;;;;;18.14;68.98;95173.41;6248383;28;19968;-68
2022/06/07 03:31:52;;;;;;;;;;;;;;;17.95;67.41;95182.03;6247751;28;20017;-68
2022/06/07 03:34:56;;;;;;;;;;;;;;;17.69;67.59;95174.47;6248167;28;19920;-67
2022/06/07 03:38:00;;;;;;;;;;;;;;;17.43;68.11;95164.31;6247869;28;20428;-67
2022/06/07 03:41:03;;;;;;;;;;;;;;;17.39;68.25;95131.97;6246399;28;20015;-69
2022/06/07 03:44:05;;;;;;;;;;;;;;;17.28;67.85;95108.50;6247467;28;19921;-68
2022/06/07 03:47:08;;;;;;;;;;;;;;;17.36;67.86;95088.97;6247473;28;19925;-68
2022/06/07 03:50:10;;;;;;;;;;;;;;;17.32;68.13;95072.56;6247879;28;19928;-67
2022/06/07 03:53:11;;;;;;;;;;;;;;;17.36;68.32;95052.59;6247342;28;19921;-68
2022/06/07 03:56:15;;;;;;;;;;;;;;;17.40;67.91;95059.16;6247292;28;20010;-67
2022/06/07 03:59:19;;;;;;;;;;;;;;;17.32;67.70;95030.03;6247118;28;19932;-67
2022/06/07 04:02:20;;;;;;;;;;;;;;;17.23;68.07;95029.31;6247323;28;19921;-67
2022/06/07 04:05:21;;;;;;;;;;;;;;;17.12;68.44;95039.59;6247157;28;20415;-68
2022/06/07 04:08:26;;;;;;;;;;;;;;;17.06;68.66;95036.66;6246853;28;20374;-68
2022/06/07 04:11:30;;;;;;;;;;;;;;;17.11;68.66;95037.94;6246929;28;19921;-67
2022/06/07 04:14:36;;;;;;;;;;;;;;;17.07;68.73;95010.94;6246704;28;20414;-67
2022/06/07 04:17:40;;;;;;;;;;;;;;;16.96;68.58;95009.56;6247219;28;19921;-68
2022/06/07 04:20:43;;;;;;;;;;;;;;;16.72;69.09;95039.00;6246716;28;19921;-68
2022/06/07 04:23:44;;;;;;;;;;;;;;;16.58;69.82;95011.44;6246456;28;19921;-68
2022/06/07 04:26:50;;;;;;;;;;;;;;;16.42;70.19;95001.81;6245978;28;19921;-72
2022/06/07 04:29:53;;;;;;;;;;;;;;;16.32;70.64;94970.22;6246419;28;19921;-67
2022/06/07 04:33:00;;;;;;;;;;;;;;;16.37;70.78;94993.56;6246423;28;19921;-67
2022/06/07 04:36:09;;;;;;;;;;;;;;;16.37;70.92;94993.56;6246574;28;19925;-68
2022/06/07 04:39:11;;;;;;;;;;;;;;;16.96;70.40;94983.00;6246513;28;19921;-68
2022/06/07 04:42:15;;;;;;;;;;;;;;;17.70;68.88;94963.34;6246252;28;19920;-68
2022/06/07 04:45:19;;;;;;;;;;;;;;;18.02;67.52;94974.50;6246328;28;19990;-67
2022/06/07 04:48:26;;;;;;;;;;;;;;;17.74;67.73;94954.78;6246513;28;19928;-67
2022/06/07 04:51:28;;;;;;;;;;;;;;;17.23;69.01;94959.38;6246029;28;19927;-67
2022/06/07 04:54:33;;;;;;;;;;;;;;;16.60;70.69;94961.63;6246606;28;19944;-68
2022/06/07 04:57:34;;;;;;;;;;;;;;;16.40;71.79;94956.06;6245701;28;19921;-67
2022/06/07 05:00:36;;;;;;;;;;;;;;;17.01;71.87;94956.69;6245988;28;19921;-69
2022/06/07 05:03:37;;;;;;;;;;;;;;;17.71;69.85;94933.06;6245375;28;20422;-67
2022/06/07 05:06:42;;;;;;;;;;;;;;;18.25;68.80;94929.03;6246330;28;20351;-68
2022/06/07 05:09:47;;;;;;;;;;;;;;;18.75;67.53;94933.25;6246233;28;19920;-68
2022/06/07 05:12:50;;;;;;;;;;;;;;;19.32;66.70;94935.72;6245610;28;19921;-67
2022/06/07 05:15:56;;;;;;;;;;;;;;;19.92;65.15;94934.00;6244820;28;20293;-68
2022/06/07 05:18:57;;;;;;;;;;;;;;;21.74;62.93;94930.44;6245961;28;19916;-67
2022/06/07 05:22:05;;;;;;;;;;;;;;;24.69;57.32;94935.56;6245634;28;19927;-67
2022/06/07 05:25:06;;;;;;;;;;;;;;;25.59;54.96;94938.75;6245107;28;19928;-67
2022/06/07 05:28:09;;;;;;;;;;;;;;;25.47;55.69;94918.06;6244342;28;19921;-67
2022/06/07 05:31:10;;;;;;;;;;;;;;;24.92;57.25;94913.19;6244164;28;19952;-68
2022/06/07 05:34:12;;;;;;;;;;;;;;;24.44;58.38;94895.47;6245328;28;19944;-67
2022/06/07 05:37:17;;;;;;;;;;;;;;;24.69;58.12;94905.16;6246661;28;19921;-67
2022/06/07 05:40:18;;;;;;;;;;;;;;;25.69;56.30;94907.44;6250325;28;20311;-68
2022/06/07 05:43:22;;;;;;;;;;;;;;;26.23;53.72;94909.72;6250397;28;19928;-67
2022/06/07 05:46:26;;;;;;;;;;;;;;;26.45;54.43;94914.38;6250530;28;19921;-67
2022/06/07 05:49:29;;;;;;;;;;;;;;;27.24;54.42;94912.28;6250219;28;19927;-67
2022/06/07 05:52:32;;;;;;;;;;;;;;;30.67;46.34;94916.16;6250596;28;20311;-67
2022/06/07 05:55:33;;;;;;;;;;;;;;;30.83;47.13;94907.72;6250121;28;19916;-67
2022/06/07 05:58:37;;;;;;;;;;;;;;;30.06;48.51;94911.50;6250098;28;19920;-67
2022/06/07 06:01:41;;;;;;;;;;;;;;;28.98;51.14;94913.81;6250205;28;19925;-67
2022/06/07 06:04:42;;;;;;;;;;;;;;;27.95;51.79;94890.63;6250204;28;19955;-67
2022/06/07 06:11:10;;;;;;;;;;;;;;;31.24;44.11;94910.31;6249941;28;20397;-67
2022/06/07 06:14:14;;;;;;;;;;;;;;;32.35;41.05;94911.88;6249892;28;19920;-67
2022/06/07 06:17:17;;;;;;;;;;;;;;;35.76;35.50;94907.28;6249877;28;20027;-67
2022/06/07 06:20:20;;;;;;;;;;;;;;;38.10;33.14;94906.97;6249409;28;19921;-67
2022/06/07 06:23:23;;;;;;;;;;;;;;;37.83;27.31;94905.34;6249395;28;19921;-67
2022/06/07 06:26:26;;;;;;;;;;;;;;;36.64;28.36;94901.44;6249636;28;19921;-68
2022/06/07 06:29:30;;;;;;;;;;;;;;;36.94;27.62;94897.06;6249453;28;20347;-67
2022/06/07 06:32:31;;;;;;;;;;;;;;;39.19;24.52;94901.19;6249359;28;20420;-67
2022/06/07 06:35:35;;;;;;;;;;;;;;;41.04;22.08;94901.16;6249360;28;20291;-67
2022/06/07 06:38:38;;;;;;;;;;;;;;;43.12;19.82;94901.97;6249347;28;20348;-68
2022/06/07 06:41:41;;;;;;;;;;;;;;;44.90;18.51;94898.91;6249087;28;19929;-67
2022/06/07 06:44:43;;;;;;;;;;;;;;;45.45;17.97;94885.59;6249125;28;19920;-66
2022/06/07 06:47:46;;;;;;;;;;;;;;;46.49;15.97;94880.75;6248987;28;19920;-66
2022/06/07 06:50:48;;;;;;;;;;;;;;;46.42;16.76;94875.09;6248138;28;20054;-66
2022/06/07 06:53:49;;;;;;;;;;;;;;;47.14;15.75;94885.09;6248940;28;19921;-67
2022/06/07 06:56:53;;;;;;;;;;;;;;;48.74;13.22;94898.50;6249055;28;19921;-66
2022/06/07 06:59:58;;;;;;;;;;;;;;;46.66;13.90;94899.69;6248820;28;19921;-67
2022/06/07 07:03:04;;;;;;;;;;;;;;;45.31;15.27;94890.91;6248810;28;19921;-67
2022/06/07 07:06:08;;;;;;;;;;;;;;;43.12;15.89;94890.88;6249097;28;19921;-67
2022/06/07 07:09:16;;;;;;;;;;;;;;;41.83;17.14;94889.94;6248633;28;19921;-67
2022/06/07 07:12:18;;;;;;;;;;;;;;;42.37;16.71;94886.84;6248890;28;20023;-66
2022/06/07 07:15:19;;;;;;;;;;;;;;;41.03;17.63;94883.00;6248246;28;19928;-67
2022/06/07 07:18:22;;;;;;;;;;;;;;;39.40;19.10;94878.47;6248548;28;19921;-67
2022/06/07 07:21:28;;;;;;;;;;;;;;;35.55;23.33;94879.53;6247273;28;19921;-67
2022/06/07 07:24:32;;;;;;;;;;;;;;;33.80;25.58;94858.28;6247996;28;19925;-67
2022/06/07 07:27:36;;;;;;;;;;;;;;;32.59;27.42;94847.47;6248013;28;20450;-68
2022/06/07 07:30:39;;;;;;;;;;;;;;;30.65;29.64;94840.41;6248108;28;19928;-67
2022/06/07 07:33:41;;;;;;;;;;;;;;;29.49;31.90;94843.63;6247977;28;19964;-67
2022/06/07 07:36:43;;;;;;;;;;;;;;;29.87;31.40;94830.69;6248054;28;19928;-68
2022/06/07 07:39:46;;;;;;;;;;;;;;;31.50;29.58;94837.66;6248105;28;20396;-68
2022/06/07 07:42:49;;;;;;;;;;;;;;;30.80;30.20;94832.25;6247705;28;19921;-67
2022/06/07 07:45:54;;;;;;;;;;;;;;;31.25;30.57;94838.59;6247560;28;19943;-68
2022/06/07 07:48:58;;;;;;;;;;;;;;;34.59;26.14;94852.97;6246218;28;19921;-67
2022/06/07 07:52:02;;;;;;;;;;;;;;;35.67;24.15;94847.03;6247367;28;19921;-68
2022/06/07 07:55:07;;;;;;;;;;;;;;;34.62;25.35;94835.97;6247537;28;19921;-67
2022/06/07 07:58:11;;;;;;;;;;;;;;;34.23;25.85;94829.00;6247488;28;20020;-67
2022/06/07 08:01:16;;;;;;;;;;;;;;;34.39;25.93;94819.41;6247384;28;19921;-67
2022/06/07 08:04:20;;;;;;;;;;;;;;;34.06;25.35;94826.00;6247353;28;20388;-66
2022/06/07 08:07:23;;;;;;;;;;;;;;;32.24;27.10;94823.28;6247289;28;19920;-66
2022/06/07 08:10:29;;;;;;;;;;;;;;;29.71;31.56;94819.03;6246812;28;20428;-67
2022/06/07 08:13:33;;;;;;;;;;;;;;;28.05;34.37;94816.09;6246505;28;19921;-67
2022/06/07 08:16:39;;;;;;;;;;;;;;;27.03;37.01;94832.06;6246981;28;19921;-68
2022/06/07 08:19:45;;;;;;;;;;;;;;;26.51;38.15;94821.72;6246880;28;19920;-68
2022/06/07 08:22:49;;;;;;;;;;;;;;;27.00;37.27;94825.28;6246403;28;20320;-68
2022/06/07 08:25:53;;;;;;;;;;;;;;;30.74;27.22;94841.47;6246513;28;20312;-68
2022/06/07 08:28:58;;;;;;;;;;;;;;;31.98;22.64;94831.66;6246556;28;20380;-67
2022/06/07 08:31:59;;;;;;;;;;;;;;;32.34;23.02;94847.69;6246580;28;20327;-67
2022/06/07 08:38:23;;;;;;;;;;;;;;;33.17;22.35;94846.56;6246538;28;19920;-67
2022/06/07 08:41:40;;;;;;;;;;;;;;;32.88;22.28;94833.00;6246515;28;19916;-67
2022/06/07 08:44:44;;;;;;;;;;;;;;;32.90;22.87;94852.59;6246567;28;19921;-67
2022/06/07 08:47:53;;;;;;;;;;;;;;;32.38;23.71;94832.38;6246154;28;19920;-67
2022/06/07 08:51:14;;;;;;;;;;;;;;;31.21;25.10;94834.81;6246047;28;19925;-67
2022/06/07 08:54:24;;;;;;;;;;;;;;;32.32;24.69;94852.59;6246137;28;20312;-67
2022/06/07 08:57:30;;;;;;;;;;;;;;;32.23;24.01;94851.59;6246021;28;19921;-66
2022/06/07 09:00:35;;;;;;;;;;;;;;;32.74;23.99;94848.41;6245703;28;19940;-66
2022/06/07 09:04:02;;;;;;;;;;;;;;;32.98;23.76;94842.94;6246017;28;19966;-68
2022/06/07 09:07:12;;;;;;;;;;;;;;;32.45;24.07;94846.50;6246086;28;20377;-67
2022/06/07 09:13:36;;;;;;;;;;;;;;;32.31;24.75;94883.63;6245232;28;19921;-67
2022/06/07 09:16:43;;;;;;;;;;;;;;;32.10;24.73;94851.16;6245680;28;19925;-67
2022/06/07 09:19:47;;;;;;;;;;;;;;;31.43;25.48;94874.41;6245821;28;19921;-67
2022/06/07 09:22:54;;;;;;;;;;;;;;;30.74;26.46;94871.31;6245284;28;19921;-68
2022/06/07 09:26:11;;;;;;;;;;;;;;;31.09;26.18;94856.06;6245646;28;19920;-66
2022/06/07 09:29:15;;;;;;;;;;;;;;;31.87;25.24;94868.94;6245530;28;19948;-67
2022/06/07 09:32:23;;;;;;;;;;;;;;;31.67;25.74;94864.47;6245334;28;19928;-67
2022/06/07 09:35:35;;;;;;;;;;;;;;;31.93;24.71;94877.91;6245587;28;20018;-67
2022/06/07 09:38:45;;;;;;;;;;;;;;;31.22;25.49;94879.88;6245419;28;20027;-68
2022/06/07 09:41:53;;;;;;;;;;;;;;;30.96;26.24;94891.94;6245244;28;19928;-68
2022/06/07 09:44:55;;;;;;;;;;;;;;;29.32;29.03;94880.97;6245165;28;19921;-67
2022/06/07 09:47:56;;;;;;;;;;;;;;;28.67;30.09;94874.13;6245347;28;19921;-67
2022/06/07 09:51:07;;;;;;;;;;;;;;;28.47;30.50;94874.81;6245172;28;19953;-67
2022/06/07 09:54:17;;;;;;;;;;;;;;;29.99;27.78;94928.06;6245326;28;19921;-68
2022/06/07 09:57:30;;;;;;;;;;;;;;;29.39;29.03;94903.22;6245409;28;20372;-67
2022/06/07 10:00:43;;;;;;;;;;;;;;;28.96;29.63;94909.75;6245166;28;20450;-68
2022/06/07 10:03:55;;;;;;;;;;;;;;;28.50;29.89;94929.22;6245131;28;19921;-68
2022/06/07 10:07:02;;;;;;;;;;;;;;;26.80;32.63;94927.59;6245351;28;20278;-67
2022/06/07 10:10:15;;;;;;;;;;;;;;;25.21;34.59;94915.94;6245134;28;20031;-68
2022/06/07 10:13:22;;;;;;;;;;;;;;;25.56;34.81;94917.69;6245036;28;19921;-67
2022/06/07 10:16:26;;;;;;;;;;;;;;;25.43;35.24;94918.81;6245084;28;19921;-67
2022/06/07 10:19:32;;;;;;;;;;;;;;;25.57;34.18;94916.66;6245123;28;20382;-68
2022/06/07 10:22:51;;;;;;;;;;;;;;;24.45;37.09;94920.47;6245158;28;20299;-67
2022/06/07 10:25:52;;;;;;;;;;;;;;;23.29;40.31;94953.72;6248389;28;20320;-67
2022/06/07 10:29:13;;;;;;;;;;;;;;;22.05;42.71;94919.88;6249722;28;19920;-68
2022/06/07 10:32:16;;;;;;;;;;;;;;;21.88;43.80;94931.16;6249419;28;20000;-67
2022/06/07 10:35:17;;;;;;;;;;;;;;;21.48;45.54;94946.63;6249425;28;19920;-68
2022/06/07 10:38:30;;;;;;;;;;;;;;;21.13;46.57;94932.78;6249076;28;19921;-68
2022/06/07 10:41:37;;;;;;;;;;;;;;;21.31;46.15;94940.91;6249125;28;19921;-68
2022/06/07 10:44:38;;;;;;;;;;;;;;;21.62;46.09;94950.03;6248910;28;19971;-68
2022/06/07 10:47:49;;;;;;;;;;;;;;;21.65;46.07;94939.72;6249005;28;19921;-67
2022/06/07 10:54:57;;;;;;;;;;;;;;;22.95;44.09;94946.25;6245641;28;20392;-67
2022/06/07 10:58:02;;;;;;;;;;;;;;;22.25;45.94;94942.03;6248523;28;19928;-67
2022/06/07 11:01:03;;;;;;;;;;;;;;;21.88;45.35;94931.16;6248671;28;19925;-67
2022/06/07 11:11:21;;;;;;;;;;;;;;;22.18;41.10;94951.97;6248486;28;19928;-67
2022/06/07 11:14:33;;;;;;;;;;;;;;;22.84;39.73;94935.25;6248439;28;19928;-67
2022/06/07 11:17:51;;;;;;;;;;;;;;;22.27;40.63;94950.63;6247939;28;19949;-69
2022/06/07 11:21:01;;;;;;;;;;;;;;;21.90;41.31;94987.97;6248017;28;19921;-67
2022/06/07 11:24:18;;;;;;;;;;;;;;;22.25;40.80;94947.38;6247694;28;19960;-68
2022/06/07 11:27:23;;;;;;;;;;;;;;;22.84;39.23;94963.91;6247987;28;19921;-67
2022/06/07 11:30:28;;;;;;;;;;;;;;;23.53;37.77;94943.13;6247764;28;19921;-68
2022/06/07 11:33:38;;;;;;;;;;;;;;;23.46;37.75;94955.78;6247745;28;19921;-68
2022/06/07 11:36:44;;;;;;;;;;;;;;;23.48;38.12;94962.56;6247118;28;20019;-67
2022/06/07 11:39:57;;;;;;;;;;;;;;;23.41;38.83;94974.44;6247382;28;20350;-68
2022/06/07 11:43:00;;;;;;;;;;;;;;;22.98;40.38;94980.72;6247842;28;19944;-68
2022/06/07 11:46:06;;;;;;;;;;;;;;;22.59;40.30;95007.69;6247320;28;20407;-68
2022/06/07 11:49:22;;;;;;;;;;;;;;;22.52;40.37;94973.94;6247585;28;19921;-68
2022/06/07 11:52:25;;;;;;;;;;;;;;;22.66;39.68;94993.41;6247495;28;19979;-67
2022/06/07 11:55:38;;;;;;;;;;;;;;;22.52;39.93;94969.38;6247262;28;19932;-69
2022/06/07 11:58:51;;;;;;;;;;;;;;;22.69;40.42;94975.00;6246804;28;19927;-68
2022/06/07 12:01:55;;;;;;;;;;;;;;;22.70;39.84;94995.41;6247358;28;20380;-68
2022/06/07 12:05:19;;;;;;;;;;;;;;;22.51;40.51;94983.84;6246939;28;19917;-67
2022/06/07 12:08:26;;;;;;;;;;;;;;;22.48;40.92;94962.03;6247127;28;20276;-67
2022/06/07 12:11:32;;;;;;;;;;;;;;;22.52;40.42;94979.28;6246630;28;19970;-67
2022/06/07 12:14:37;;;;;;;;;;;;;;;22.49;40.51;94967.16;6246611;28;20330;-67
2022/06/07 12:17:51;;;;;;;;;;;;;;;22.30;40.39;94958.22;6246716;28;19920;-68
2022/06/07 12:21:02;;;;;;;;;;;;;;;22.14;41.02;94977.53;6246694;28;19921;-68
2022/06/07 12:24:15;;;;;;;;;;;;;;;22.04;41.62;94974.50;6246477;28;20445;-67
2022/06/07 12:27:37;;;;;;;;;;;;;;;22.20;41.51;94987.38;6246344;28;19983;-66
2022/06/07 12:30:38;;;;;;;;;;;;;;;22.24;41.89;94985.91;6246426;28;19917;-67
2022/06/07 12:33:39;;;;;;;;;;;;;;;21.92;42.50;95010.00;6246242;28;20327;-68
2022/06/07 12:36:44;;;;;;;;;;;;;;;22.10;42.03;95000.41;6246174;28;20458;-68
2022/06/07 12:39:53;;;;;;;;;;;;;;;21.89;42.49;94997.03;6246056;28;20303;-67
2022/06/07 12:42:56;;;;;;;;;;;;;;;21.39;43.30;95010.25;6246041;28;20063;-68
2022/06/07 12:46:04;;;;;;;;;;;;;;;20.93;44.55;95013.06;6245673;28;19925;-68
2022/06/07 12:49:11;;;;;;;;;;;;;;;21.27;44.22;95001.25;6245284;28;20308;-67
2022/06/07 12:52:16;;;;;;;;;;;;;;;21.42;44.32;95004.50;6244554;28;19944;-69
2022/06/07 12:55:21;;;;;;;;;;;;;;;21.35;44.58;95006.34;6245456;28;19921;-67
2022/06/07 12:58:28;;;;;;;;;;;;;;;21.12;44.87;95027.41;6245869;28;19921;-67
2022/06/07 13:01:35;;;;;;;;;;;;;;;20.58;46.11;95016.81;6245719;28;19927;-68
2022/06/07 13:04:49;;;;;;;;;;;;;;;20.45;46.59;95024.00;6245688;28;20380;-67
2022/06/07 13:07:55;;;;;;;;;;;;;;;20.22;47.19;95011.03;6245959;28;19921;-68
2022/06/07 13:10:56;;;;;;;;;;;;;;;19.88;48.01;95021.69;6245424;28;19933;-67
2022/06/07 13:14:00;;;;;;;;;;;;;;;20.06;47.70;95025.59;6245706;28;19921;-67
2022/06/07 13:17:22;;;;;;;;;;;;;;;20.08;47.58;95036.91;6244157;28;19920;-68
2022/06/07 13:20:29;;;;;;;;;;;;;;;20.19;47.24;95034.44;6245635;28;19952;-68
2022/06/07 13:23:38;;;;;;;;;;;;;;;20.63;46.39;95057.09;6244640;28;19933;-68
2022/06/07 13:26:45;;;;;;;;;;;;;;;20.63;46.63;95042.91;6245351;28;20265;-67
2022/06/07 13:29:46;;;;;;;;;;;;;;;20.51;46.81;95034.66;6245955;28;19928;-68
2022/06/07 13:33:22;;;;;;;;;;;;;;;20.54;47.24;95017.44;6245876;28;20353;-67
2022/06/07 13:36:39;;;;;;;;;;;;;;;20.74;46.08;95041.47;6242013;28;19921;-67
2022/06/07 13:39:57;;;;;;;;;;;;;;;20.13;48.00;95053.16;6245726;28;20296;-68
2022/06/07 13:42:59;;;;;;;;;;;;;;;19.60;49.86;95028.97;6245636;28;19925;-67
2022/06/07 13:46:06;;;;;;;;;;;;;;;19.11;51.08;95029.97;6246106;28;20381;-67
2022/06/07 13:56:04;;;;;;;;;;;;;;;18.50;53.00;95030.59;6245299;28;20019;-68
2022/06/07 13:59:11;;;;;;;;;;;;;;;18.23;53.51;95033.06;6247475;28;20033;-68
2022/06/07 14:02:17;;;;;;;;;;;;;;;18.33;53.56;95030.88;6249912;28;19928;-68
2022/06/07 14:05:26;;;;;;;;;;;;;;;18.00;54.21;95038.56;6249977;28;19921;-69
2022/06/07 14:08:31;;;;;;;;;;;;;;;17.81;54.45;95053.34;6249656;28;19925;-68
2022/06/07 14:11:35;;;;;;;;;;;;;;;17.99;53.37;95057.38;6249115;28;19925;-69
2022/06/07 14:14:36;;;;;;;;;;;;;;;17.92;53.27;95066.13;6249059;28;19927;-68
2022/06/07 14:17:38;;;;;;;;;;;;;;;17.98;52.19;95077.84;6249513;28;19980;-67
2022/06/07 14:20:43;;;;;;;;;;;;;;;17.85;52.70;95078.53;6249276;28;19921;-68
2022/06/07 14:23:47;;;;;;;;;;;;;;;18.14;51.55;95108.72;6247712;28;19925;-67
2022/06/07 14:26:49;;;;;;;;;;;;;;;17.77;52.00;95115.84;6248246;28;19921;-67
2022/06/07 14:29:55;;;;;;;;;;;;;;;17.36;53.42;95105.75;6249362;28;19925;-68
2022/06/07 14:33:00;;;;;;;;;;;;;;;17.29;53.97;95099.50;6249062;28;19925;-67
2022/06/07 14:36:03;;;;;;;;;;;;;;;17.56;53.63;95110.50;6249334;28;20380;-68
2022/06/07 14:39:11;;;;;;;;;;;;;;;17.93;51.41;95107.69;6249214;28;19933;-68
2022/06/07 14:42:13;;;;;;;;;;;;;;;18.26;50.76;95117.00;6248946;28;20368;-67
2022/06/07 14:45:16;;;;;;;;;;;;;;;18.15;50.38;95115.72;6249093;28;19944;-67
2022/06/07 14:48:31;;;;;;;;;;;;;;;17.58;51.73;95124.41;6249255;28;19925;-67
2022/06/07 14:51:36;;;;;;;;;;;;;;;17.33;52.69;95118.59;6249033;28;19921;-67
2022/06/07 14:54:38;;;;;;;;;;;;;;;17.06;53.51;95127.00;6248524;28;19921;-67
2022/06/07 14:57:43;;;;;;;;;;;;;;;17.39;52.46;95118.66;6248764;28;19921;-68
2022/06/07 15:00:46;;;;;;;;;;;;;;;17.20;52.99;95114.72;6248489;28;20269;-68
2022/06/07 15:03:48;;;;;;;;;;;;;;;17.09;53.33;95120.50;6248163;28;19921;-67
2022/06/07 15:06:55;;;;;;;;;;;;;;;17.11;53.09;95123.81;6248499;28;19921;-68
2022/06/07 15:09:57;;;;;;;;;;;;;;;17.70;51.47;95128.28;6246733;28;20304;-67
2022/06/07 15:12:59;;;;;;;;;;;;;;;17.77;50.97;95129.16;6248392;28;19917;-67
2022/06/07 15:16:06;;;;;;;;;;;;;;;17.46;51.87;95126.72;6248220;28;20063;-68
2022/06/07 15:19:11;;;;;;;;;;;;;;;17.27;52.50;95128.13;6248230;28;20319;-68
2022/06/07 15:22:14;;;;;;;;;;;;;;;17.08;53.53;95144.59;6248258;28;19942;-68
2022/06/07 15:25:17;;;;;;;;;;;;;;;17.15;53.16;95150.84;6247849;28;20020;-68
2022/06/07 15:28:23;;;;;;;;;;;;;;;16.92;53.38;95143.75;6247435;28;20370;-68
2022/06/07 15:31:25;;;;;;;;;;;;;;;16.75;54.19;95144.88;6248103;28;20419;-68
2022/06/07 15:34:29;;;;;;;;;;;;;;;16.59;54.81;95152.00;6247746;28;20016;-67
2022/06/07 15:37:33;;;;;;;;;;;;;;;16.34;55.39;95143.38;6247668;28;19921;-68
2022/06/07 15:40:34;;;;;;;;;;;;;;;16.16;55.89;95151.66;6247759;28;19920;-68
2022/06/07 15:43:35;;;;;;;;;;;;;;;16.08;56.30;95148.22;6247291;28;20321;-68
2022/06/07 15:46:37;;;;;;;;;;;;;;;16.29;56.04;95155.53;6247771;28;20018;-68
2022/06/07 15:49:41;;;;;;;;;;;;;;;16.19;56.37;95146.97;6247408;28;20412;-68
2022/06/07 15:52:43;;;;;;;;;;;;;;;15.93;56.89;95158.75;6247402;28;19921;-67
2022/06/07 15:55:46;;;;;;;;;;;;;;;15.81;57.32;95152.19;6247617;28;19920;-67
2022/06/07 15:59:06;;;;;;;;;;;;;;;15.74;57.47;95148.56;6247337;28;19921;-68
2022/06/07 16:02:08;;;;;;;;;;;;;;;15.57;58.21;95145.13;6247478;28;19921;-68
2022/06/07 16:13:50;;;;;;;;;;;;;;;15.32;59.57;95147.06;6219172;28;19921;-69
2022/06/07 16:16:54;;;;;;;;;;;;;;;15.45;59.90;95149.97;6219697;28;19922;-68
2022/06/07 16:20:04;;;;;;;;;;;;;;;15.39;60.25;95142.72;6246937;28;20411;-68
2022/06/07 16:23:05;;;;;;;;;;;;;;;15.31;60.64;95150.69;6245642;28;20293;-68
2022/06/07 16:26:07;;;;;;;;;;;;;;;15.44;60.77;95156.28;6246697;28;19921;-67
2022/06/07 16:36:04;;;;;;;;;;;;;;;15.47;61.02;95155.94;6246498;28;20274;-69
2022/06/07 16:39:07;;;;;;;;;;;;;;;15.50;61.18;95156.41;6245362;28;19920;-67
2022/06/07 16:42:08;;;;;;;;;;;;;;;15.57;60.95;95164.53;6246400;28;19928;-69
2022/06/07 16:45:09;;;;;;;;;;;;;;;15.53;61.13;95160.56;6246266;28;19994;-67
2022/06/07 16:48:13;;;;;;;;;;;;;;;15.53;61.55;95165.84;6245950;28;19921;-67
2022/06/07 16:51:16;;;;;;;;;;;;;;;15.38;61.71;95162.28;6246203;28;20308;-68
2022/06/07 16:54:20;;;;;;;;;;;;;;;15.12;61.97;95162.53;6245858;28;19925;-67